Time,TemperatureF,DewpointF,PressureIn,WindDirection,WindDirectionDegrees,WindSpeedMPH,WindSpeedGustMPH,Humidity,HourlyPrecipIn,Conditions,Clouds,dailyrainin,SoftwareType,DateUTC
2013-03-13 00:00:00,40.1,40.1,29.79,NE,34,0.0,0.0,100,0.01,,OVC006,0.91,VWS V14.01,2013-03-13 04:00:00,
2013-03-13 00:05:00,39.7,39.7,29.79,North,352,0.0,0.0,100,0.00,,BKN110,0.00,VWS V14.01,2013-03-13 04:05:00,
2013-03-13 00:10:00,39.7,39.7,29.79,NNE,18,0.0,0.0,100,0.00,,BKN110,0.00,VWS V14.01,2013-03-13 04:10:00,
2013-03-13 00:15:00,39.7,39.7,29.79,NW,323,0.0,0.0,100,0.00,,BKN110,0.00,VWS V14.01,2013-03-13 04:15:00,
2013-03-13 00:20:00,39.4,39.4,29.79,North,349,0.0,0.0,100,0.00,,BKN110,0.00,VWS V14.01,2013-03-13 04:20:00,
2013-03-13 00:25:00,39.1,39.1,29.79,NNE,29,0.0,0.0,100,0.00,,BKN110,0.00,VWS V14.01,2013-03-13 04:25:00,
2013-03-13 00:30:00,39.1,39.1,29.80,NNW,341,0.0,0.0,100,0.00,,BKN110,0.00,VWS V14.01,2013-03-13 04:30:00,
2013-03-13 00:35:00,39.0,39.0,29.79,NNE,24,0.0,0.0,100,0.00,,BKN110,0.00,VWS V14.01,2013-03-13 04:35:00,
2013-03-13 00:40:00,39.0,39.0,29.79,NW,325,0.0,0.0,100,0.00,,BKN110,0.00,VWS V14.01,2013-03-13 04:40:00,
2013-03-13 00:45:00,38.8,38.8,29.79,NNE,15,0.0,0.0,100,0.00,,BKN110,0.00,VWS V14.01,2013-03-13 04:45:00,
2013-03-13 00:50:00,38.8,38.8,29.79,NNW,327,0.0,0.0,100,0.00,,BKN110,0.00,VWS V14.01,2013-03-13 04:50:00,
2013-03-13 00:55:00,38.8,38.8,29.79,NNW,339,0.0,0.0,100,0.00,,BKN110,0.00,VWS V14.01,2013-03-13 04:55:00,
2013-03-13 01:00:00,38.7,38.7,29.79,NW,323,0.0,0.0,100,0.00,,BKN110,0.00,VWS V14.01,2013-03-13 05:00:00,
2013-03-13 01:05:00,38.7,38.7,29.78,NW,320,0.0,0.0,100,0.00,,CLR,0.00,VWS V14.01,2013-03-13 05:05:00,
2013-03-13 01:10:00,38.6,38.3,29.78,NNW,343,0.0,0.0,99,0.00,,CLR,0.00,VWS V14.01,2013-03-13 05:10:00,
2013-03-13 01:15:00,38.6,38.3,29.79,NNW,343,0.0,0.0,99,0.00,,CLR,0.00,VWS V14.01,2013-03-13 05:15:00,
2013-03-13 01:20:00,38.6,38.1,29.78,NNE,15,0.0,0.0,98,0.00,,CLR,0.00,VWS V14.01,2013-03-13 05:20:00,
2013-03-13 01:25:00,38.6,38.1,29.79,West,276,0.0,0.0,98,0.00,,CLR,0.00,VWS V14.01,2013-03-13 05:25:00,
2013-03-13 01:30:00,38.5,38.0,29.79,WNW,295,0.0,0.0,98,0.00,,CLR,0.00,VWS V14.01,2013-03-13 05:30:00,
2013-03-13 01:35:00,38.7,38.2,29.79,North,3,0.0,0.0,98,0.00,,CLR,0.00,VWS V14.01,2013-03-13 05:35:00,
2013-03-13 01:40:00,38.7,37.9,29.79,NE,34,0.0,0.0,97,0.00,,CLR,0.00,VWS V14.01,2013-03-13 05:40:00,
2013-03-13 01:45:00,38.7,37.9,29.79,West,281,0.0,0.0,97,0.00,,CLR,0.00,VWS V14.01,2013-03-13 05:45:00,
2013-03-13 01:50:00,38.6,37.6,29.79,NNW,334,0.0,0.0,96,0.00,,CLR,0.00,VWS V14.01,2013-03-13 05:50:00,
2013-03-13 01:55:00,38.4,37.4,29.79,NNW,335,0.0,0.0,96,0.00,,CLR,0.00,VWS V14.01,2013-03-13 05:55:00,
2013-03-13 02:00:00,38.4,37.4,29.79,West,262,0.0,0.0,96,0.00,,CLR,0.00,VWS V14.01,2013-03-13 06:00:00,
2013-03-13 02:05:00,38.2,37.2,29.79,South,187,0.0,0.0,96,0.00,,OVC050,0.00,VWS V14.01,2013-03-13 06:05:00,
2013-03-13 02:10:00,38.1,37.1,29.80,West,267,0.0,0.0,96,0.00,,OVC050,0.00,VWS V14.01,2013-03-13 06:10:00,
2013-03-13 02:15:00,38.1,37.1,29.79,NW,319,0.0,0.0,96,0.00,,OVC050,0.00,VWS V14.01,2013-03-13 06:15:00,
2013-03-13 02:20:00,38.0,36.7,29.80,NW,318,0.0,0.0,95,0.00,,OVC050,0.00,VWS V14.01,2013-03-13 06:20:00,
2013-03-13 02:25:00,38.0,36.7,29.80,WSW,244,0.0,0.0,95,0.00,,OVC050,0.00,VWS V14.01,2013-03-13 06:25:00,
2013-03-13 02:30:00,37.7,36.4,29.81,West,281,0.0,0.0,95,0.00,,OVC050,0.00,VWS V14.01,2013-03-13 06:30:00,
2013-03-13 02:35:00,37.7,36.4,29.81,SSW,207,0.0,0.0,95,0.00,,OVC050,0.00,VWS V14.01,2013-03-13 06:35:00,
2013-03-13 02:40:00,37.7,36.4,29.81,NW,304,0.0,0.0,95,0.00,,OVC050,0.00,VWS V14.01,2013-03-13 06:40:00,
2013-03-13 02:45:00,37.6,36.3,29.81,NW,304,0.0,0.0,95,0.00,,OVC050,0.00,VWS V14.01,2013-03-13 06:45:00,
2013-03-13 02:50:00,37.4,36.1,29.81,North,350,0.0,0.0,95,0.00,,OVC050,0.00,VWS V14.01,2013-03-13 06:50:00,
2013-03-13 02:55:00,37.3,36.0,29.81,West,278,0.0,0.0,95,0.00,,OVC050,0.00,VWS V14.01,2013-03-13 06:55:00,
2013-03-13 03:00:00,37.0,35.7,29.81,WNW,300,0.0,0.0,95,0.00,,OVC050,0.00,VWS V14.01,2013-03-13 07:00:00,
2013-03-13 03:05:00,36.7,35.7,29.81,West,279,0.0,0.0,96,0.00,,FEW050,0.00,VWS V14.01,2013-03-13 07:05:00,
2013-03-13 03:10:00,36.7,35.4,29.80,North,10,0.0,0.0,95,0.00,,FEW050,0.00,VWS V14.01,2013-03-13 07:10:00,
2013-03-13 03:15:00,36.7,35.4,29.80,WNW,287,0.0,0.0,95,0.00,,FEW050,0.00,VWS V14.01,2013-03-13 07:15:00,
2013-03-13 03:20:00,36.6,35.3,29.80,West,261,0.0,0.0,95,0.00,,FEW050,0.00,VWS V14.01,2013-03-13 07:20:00,
2013-03-13 03:25:00,36.6,35.0,29.81,WNW,289,0.0,0.0,94,0.00,,FEW050,0.00,VWS V14.01,2013-03-13 07:25:00,
2013-03-13 03:30:00,36.3,34.7,29.80,NNE,17,0.0,0.0,94,0.00,,FEW050,0.00,VWS V14.01,2013-03-13 07:30:00,
2013-03-13 03:35:00,36.3,34.7,29.81,West,268,0.0,0.0,94,0.00,,FEW050,0.00,VWS V14.01,2013-03-13 07:35:00,
2013-03-13 03:40:00,36.3,34.7,29.81,North,9,0.0,0.0,94,0.00,,FEW050,0.00,VWS V14.01,2013-03-13 07:40:00,
2013-03-13 03:45:00,36.0,34.4,29.81,NNE,26,0.0,0.0,94,0.00,,FEW050,0.00,VWS V14.01,2013-03-13 07:45:00,
2013-03-13 03:50:00,35.8,34.2,29.81,NW,306,0.0,0.0,94,0.00,,FEW050,0.00,VWS V14.01,2013-03-13 07:50:00,
2013-03-13 03:55:00,35.6,34.0,29.80,West,275,0.0,0.0,94,0.00,,FEW050,0.00,VWS V14.01,2013-03-13 07:55:00,
2013-03-13 04:00:00,35.4,33.8,29.81,WNW,292,0.0,0.0,94,0.00,,FEW050,0.00,VWS V14.01,2013-03-13 08:00:00,
2013-03-13 04:05:00,35.3,34.0,29.81,North,359,0.0,0.0,95,0.00,,CLR,0.00,VWS V14.01,2013-03-13 08:05:00,
2013-03-13 04:10:00,35.3,33.5,29.81,West,264,0.0,0.0,93,0.00,,CLR,0.00,VWS V14.01,2013-03-13 08:10:00,
2013-03-13 04:15:00,35.3,33.8,29.82,West,270,0.0,0.0,94,0.00,,CLR,0.00,VWS V14.01,2013-03-13 08:15:00,
2013-03-13 04:20:00,35.2,33.7,29.82,West,269,0.0,0.0,94,0.00,,CLR,0.00,VWS V14.01,2013-03-13 08:20:00,
2013-03-13 04:25:00,35.0,33.5,29.82,WSW,248,0.0,0.0,94,0.00,,CLR,0.00,VWS V14.01,2013-03-13 08:25:00,
2013-03-13 04:30:00,34.9,33.3,29.82,WSW,241,0.0,0.0,94,0.00,,CLR,0.00,VWS V14.01,2013-03-13 08:30:00,
2013-03-13 04:35:00,34.9,32.8,29.82,West,266,0.0,0.0,92,0.00,,CLR,0.00,VWS V14.01,2013-03-13 08:35:00,
2013-03-13 04:40:00,35.0,32.6,29.82,SSW,201,0.0,0.0,91,0.00,,CLR,0.00,VWS V14.01,2013-03-13 08:40:00,
2013-03-13 04:45:00,35.0,32.4,29.82,WNW,291,0.0,0.0,90,0.00,,CLR,0.00,VWS V14.01,2013-03-13 08:45:00,
2013-03-13 04:50:00,35.0,32.1,29.82,West,262,0.0,0.0,89,0.00,,CLR,0.00,VWS V14.01,2013-03-13 08:50:00,
2013-03-13 04:55:00,35.0,32.1,29.82,SSW,210,0.0,0.0,89,0.00,,CLR,0.00,VWS V14.01,2013-03-13 08:55:00,
2013-03-13 05:00:00,35.2,31.7,29.83,North,359,0.0,0.0,87,0.00,,CLR,0.00,VWS V14.01,2013-03-13 09:00:00,
2013-03-13 05:05:00,35.3,31.8,29.83,SE,136,0.0,0.0,87,0.00,,CLR,0.00,VWS V14.01,2013-03-13 09:05:00,
2013-03-13 05:10:00,35.3,31.5,29.83,West,281,0.0,0.0,86,0.00,,CLR,0.00,VWS V14.01,2013-03-13 09:10:00,
2013-03-13 05:15:00,35.1,31.3,29.83,WSW,250,0.0,0.0,86,0.00,,CLR,0.00,VWS V14.01,2013-03-13 09:15:00,
2013-03-13 05:20:00,35.0,31.2,29.83,WNW,300,0.0,2.8,86,0.00,,CLR,0.00,VWS V14.01,2013-03-13 09:20:00,
2013-03-13 05:25:00,34.9,31.1,29.83,East,82,0.0,5.7,86,0.00,,CLR,0.00,VWS V14.01,2013-03-13 09:25:00,
2013-03-13 05:30:00,34.6,30.6,29.83,SSW,205,5.7,5.7,85,0.00,,CLR,0.00,VWS V14.01,2013-03-13 09:30:00,
2013-03-13 05:35:00,34.6,30.9,29.83,SSE,156,0.0,2.8,86,0.00,,CLR,0.00,VWS V14.01,2013-03-13 09:35:00,
2013-03-13 05:40:00,34.4,30.6,29.83,NNE,33,0.0,8.5,86,0.00,,CLR,0.00,VWS V14.01,2013-03-13 09:40:00,
2013-03-13 05:45:00,34.3,30.6,29.83,North,3,0.0,1.4,86,0.00,,CLR,0.00,VWS V14.01,2013-03-13 09:45:00,
2013-03-13 05:50:00,34.3,30.6,29.83,SW,228,5.7,8.5,86,0.00,,CLR,0.00,VWS V14.01,2013-03-13 09:50:00,
2013-03-13 05:55:00,34.3,30.6,29.83,SSW,200,0.0,0.0,86,0.00,,CLR,0.00,VWS V14.01,2013-03-13 09:55:00,
2013-03-13 06:00:00,34.2,30.5,29.83,WSW,245,0.0,7.1,86,0.00,,CLR,0.00,VWS V14.01,2013-03-13 10:00:00,
2013-03-13 06:05:00,34.2,30.5,29.83,SSW,213,0.0,0.0,86,0.00,,CLR,0.00,VWS V14.01,2013-03-13 10:05:00,
2013-03-13 06:10:00,34.0,30.5,29.83,South,191,0.0,0.0,87,0.00,,CLR,0.00,VWS V14.01,2013-03-13 10:10:00,
2013-03-13 06:14:00,33.9,30.5,29.83,SSW,209,0.0,5.7,87,0.00,,CLR,0.00,VWS V14.01,2013-03-13 10:14:00,
2013-03-13 06:19:00,33.9,30.5,29.83,SSW,195,0.0,1.4,87,0.00,,CLR,0.00,VWS V14.01,2013-03-13 10:19:00,
2013-03-13 06:24:00,33.8,30.4,29.83,SSW,195,0.0,4.3,87,0.00,,CLR,0.00,VWS V14.01,2013-03-13 10:24:00,
2013-03-13 06:29:00,33.8,30.4,29.83,SSE,166,0.0,2.8,87,0.00,,CLR,0.00,VWS V14.01,2013-03-13 10:29:00,
2013-03-13 06:34:00,33.6,30.1,29.83,SSE,167,0.0,0.0,87,0.00,,CLR,0.00,VWS V14.01,2013-03-13 10:34:00,
2013-03-13 06:39:00,33.5,30.3,29.83,SSE,168,4.3,4.3,88,0.00,,CLR,0.00,VWS V14.01,2013-03-13 10:39:00,
2013-03-13 06:44:00,33.3,30.1,29.84,South,169,0.0,1.4,88,0.00,,CLR,0.00,VWS V14.01,2013-03-13 10:44:00,
2013-03-13 06:49:00,33.0,30.1,29.83,South,170,0.0,0.0,89,0.00,,CLR,0.00,VWS V14.01,2013-03-13 10:49:00,
2013-03-13 06:54:00,32.5,29.9,29.83,South,172,0.0,1.4,90,0.00,,CLR,0.00,VWS V14.01,2013-03-13 10:54:00,
2013-03-13 06:59:00,32.3,29.7,29.83,South,173,0.0,1.4,90,0.00,,CLR,0.00,VWS V14.01,2013-03-13 10:59:00,
2013-03-13 07:04:00,32.2,29.6,29.83,South,174,0.0,0.0,90,0.00,,CLR,0.00,VWS V14.01,2013-03-13 11:04:00,
2013-03-13 07:09:00,32.2,30.1,29.83,South,174,0.0,0.0,92,0.00,,CLR,0.00,VWS V14.01,2013-03-13 11:09:00,
2013-03-13 07:14:00,32.2,29.9,29.83,SW,218,0.0,0.0,91,0.00,,CLR,0.00,VWS V14.01,2013-03-13 11:14:00,
2013-03-13 07:19:00,32.2,29.6,29.83,South,178,0.0,0.0,90,0.00,,CLR,0.00,VWS V14.01,2013-03-13 11:19:00,
2013-03-13 07:24:00,32.2,29.6,29.83,South,189,0.0,0.0,90,0.00,,CLR,0.00,VWS V14.01,2013-03-13 11:24:00,
2013-03-13 07:29:00,32.3,29.7,29.83,SSW,213,0.0,0.0,90,0.00,,CLR,0.00,VWS V14.01,2013-03-13 11:29:00,
2013-03-13 07:34:00,32.2,29.6,29.83,South,180,0.0,0.0,90,0.00,,CLR,0.00,VWS V14.01,2013-03-13 11:34:00,
2013-03-13 07:39:00,32.5,29.9,29.83,South,183,0.0,8.5,90,0.00,,CLR,0.00,VWS V14.01,2013-03-13 11:39:00,
2013-03-13 07:44:00,32.5,30.2,29.83,South,169,1.4,4.3,91,0.00,,CLR,0.00,VWS V14.01,2013-03-13 11:44:00,
2013-03-13 07:49:00,32.6,30.3,29.83,SW,222,0.0,1.4,91,0.00,,CLR,0.00,VWS V14.01,2013-03-13 11:49:00,
2013-03-13 07:54:00,32.8,30.2,29.83,SW,220,0.0,1.4,90,0.00,,CLR,0.00,VWS V14.01,2013-03-13 11:54:00,
2013-03-13 07:59:00,33.0,30.4,29.83,SW,218,2.8,7.1,90,0.00,,CLR,0.00,VWS V14.01,2013-03-13 11:59:00,
2013-03-13 08:04:00,33.3,30.7,29.83,North,359,0.0,0.0,90,0.00,,CLR,0.00,VWS V14.01,2013-03-13 12:04:00,
2013-03-13 08:09:00,33.6,31.0,29.83,NNW,337,5.7,5.7,90,0.00,,CLR,0.00,VWS V14.01,2013-03-13 12:09:00,
2013-03-13 08:14:00,33.9,31.0,29.83,West,266,0.0,4.3,89,0.00,,CLR,0.00,VWS V14.01,2013-03-13 12:14:00,
2013-03-13 08:19:00,34.3,31.4,29.83,South,187,0.0,4.3,89,0.00,,CLR,0.00,VWS V14.01,2013-03-13 12:19:00,
2013-03-13 08:24:00,34.7,31.5,29.83,SSE,155,2.8,2.8,88,0.00,,CLR,0.00,VWS V14.01,2013-03-13 12:24:00,
2013-03-13 08:29:00,35.1,31.3,29.83,SSW,203,0.0,1.4,86,0.00,,CLR,0.00,VWS V14.01,2013-03-13 12:29:00,
2013-03-13 08:34:00,35.6,31.8,29.83,NW,312,0.0,7.1,86,0.00,,CLR,0.00,VWS V14.01,2013-03-13 12:34:00,
2013-03-13 08:39:00,36.0,31.6,29.83,SSE,148,0.0,5.7,84,0.00,,CLR,0.00,VWS V14.01,2013-03-13 12:39:00,
2013-03-13 08:44:00,36.3,31.6,29.83,SSE,147,1.4,8.5,83,0.00,,CLR,0.00,VWS V14.01,2013-03-13 12:44:00,
2013-03-13 08:49:00,36.7,32.0,29.83,SE,136,1.4,2.8,83,0.00,,CLR,0.00,VWS V14.01,2013-03-13 12:49:00,
2013-03-13 08:54:00,37.1,31.8,29.83,SSW,204,5.7,12.8,81,0.00,,CLR,0.00,VWS V14.01,2013-03-13 12:54:00,
2013-03-13 08:59:00,37.3,31.4,29.83,SSW,207,0.0,7.1,79,0.00,,CLR,0.00,VWS V14.01,2013-03-13 12:59:00,
2013-03-13 09:04:00,37.4,31.5,29.83,South,179,2.8,2.8,79,0.00,,CLR,0.00,VWS V14.01,2013-03-13 13:04:00,
2013-03-13 09:09:00,37.8,32.2,29.84,SSW,199,7.1,7.1,80,0.00,,CLR,0.00,VWS V14.01,2013-03-13 13:09:00,
2013-03-13 09:14:00,37.8,31.6,29.84,East,91,7.1,7.1,78,0.00,,CLR,0.00,VWS V14.01,2013-03-13 13:14:00,
2013-03-13 11:09:00,42.5,30.0,29.82,SW,218,4.3,14.2,61,0.00,,CLR,0.00,VWS V14.01,2013-03-13 15:09:00,
2013-03-13 11:14:00,42.5,29.6,29.82,South,189,7.1,12.8,60,0.00,,CLR,0.00,VWS V14.01,2013-03-13 15:14:00,
2013-03-13 11:19:00,42.9,30.4,29.83,South,191,7.1,9.9,61,0.00,,CLR,0.00,VWS V14.01,2013-03-13 15:19:00,
2013-03-13 11:24:00,43.4,30.5,29.82,SSE,161,1.4,8.5,60,0.00,,CLR,0.00,VWS V14.01,2013-03-13 15:24:00,
2013-03-13 11:29:00,43.2,30.3,29.82,SW,217,7.1,7.1,60,0.00,,CLR,0.00,VWS V14.01,2013-03-13 15:29:00,
2013-03-13 11:34:00,43.4,30.9,29.82,SSE,153,7.1,7.1,61,0.00,,CLR,0.00,VWS V14.01,2013-03-13 15:34:00,
2013-03-13 11:39:00,43.6,29.8,29.82,South,186,0.0,15.6,58,0.00,,CLR,0.00,VWS V14.01,2013-03-13 15:39:00,
2013-03-13 11:44:00,43.8,30.0,29.81,South,178,4.3,14.2,58,0.00,,CLR,0.00,VWS V14.01,2013-03-13 15:44:00,
2013-03-13 11:49:00,44.5,31.5,29.82,South,188,0.0,8.5,60,0.00,,CLR,0.00,VWS V14.01,2013-03-13 15:49:00,
2013-03-13 11:54:00,44.5,29.8,29.82,ESE,102,0.0,8.5,56,0.00,,CLR,0.00,VWS V14.01,2013-03-13 15:54:00,
2013-03-13 11:59:00,44.5,30.2,29.82,SW,231,4.3,12.8,57,0.00,,CLR,0.00,VWS V14.01,2013-03-13 15:59:00,
2013-03-13 12:04:00,44.5,30.2,29.82,WSW,238,5.7,5.7,57,0.00,,CLR,0.00,VWS V14.01,2013-03-13 16:04:00,
2013-03-13 12:09:00,45.1,30.8,29.81,South,183,2.8,17.0,57,0.00,,CLR,0.00,VWS V14.01,2013-03-13 16:09:00,
2013-03-13 12:14:00,45.4,31.1,29.81,South,170,1.4,5.7,57,0.00,,CLR,0.00,VWS V14.01,2013-03-13 16:14:00,
2013-03-13 12:19:00,45.1,29.9,29.81,SSE,159,0.0,5.7,55,0.00,,CLR,0.00,VWS V14.01,2013-03-13 16:19:00,
2013-03-13 12:24:00,45.3,30.1,29.82,South,170,12.8,12.8,55,0.00,,CLR,0.00,VWS V14.01,2013-03-13 16:24:00,
2013-03-13 12:29:00,44.8,29.2,29.81,South,191,2.8,11.4,54,0.00,,CLR,0.00,VWS V14.01,2013-03-13 16:29:00,
2013-03-13 12:34:00,44.9,29.3,29.81,SE,144,0.0,14.2,54,0.00,,CLR,0.00,VWS V14.01,2013-03-13 16:34:00,
2013-03-13 12:39:00,45.6,29.5,29.81,South,180,7.1,12.8,53,0.00,,CLR,0.00,VWS V14.01,2013-03-13 16:39:00,
2013-03-13 12:44:00,45.3,30.1,29.81,South,171,1.4,9.9,55,0.00,,CLR,0.00,VWS V14.01,2013-03-13 16:44:00,
2013-03-13 12:49:00,45.4,29.7,29.81,SSW,209,7.1,9.9,54,0.00,,CLR,0.00,VWS V14.01,2013-03-13 16:49:00,
2013-03-13 12:54:00,45.6,29.9,29.81,South,178,5.7,7.1,54,0.00,,CLR,0.00,VWS V14.01,2013-03-13 16:54:00,
2013-03-13 12:59:00,46.0,30.3,29.80,SSW,205,12.8,12.8,54,0.00,,CLR,0.00,VWS V14.01,2013-03-13 16:59:00,
2013-03-13 13:04:00,46.4,31.1,29.80,SSE,162,1.4,9.9,55,0.00,,CLR,0.00,VWS V14.01,2013-03-13 17:04:00,
2013-03-13 13:09:00,46.1,30.9,29.80,WNW,293,2.8,7.1,55,0.00,,CLR,0.00,VWS V14.01,2013-03-13 17:09:00,
2013-03-13 13:14:00,46.0,30.3,29.80,SW,229,2.8,11.4,54,0.00,,CLR,0.00,VWS V14.01,2013-03-13 17:14:00,
2013-03-13 13:19:00,46.2,29.6,29.80,SSW,211,2.8,11.4,52,0.00,,CLR,0.00,VWS V14.01,2013-03-13 17:19:00,
2013-03-13 13:24:00,46.3,30.6,29.79,SSE,149,4.3,7.1,54,0.00,,CLR,0.00,VWS V14.01,2013-03-13 17:24:00,
2013-03-13 13:29:00,46.4,30.7,29.79,SSW,194,8.5,8.5,54,0.00,,CLR,0.00,VWS V14.01,2013-03-13 17:29:00,
2013-03-13 13:34:00,46.6,30.4,29.79,SW,232,1.4,5.7,53,0.00,,CLR,0.00,VWS V14.01,2013-03-13 17:34:00,
2013-03-13 13:39:00,46.9,31.1,29.79,WSW,244,4.3,8.5,54,0.00,,CLR,0.00,VWS V14.01,2013-03-13 17:39:00,
2013-03-13 13:44:00,47.0,30.3,29.79,NE,37,2.8,12.8,52,0.00,,CLR,0.00,VWS V14.01,2013-03-13 17:44:00,
2013-03-13 13:49:00,47.1,31.3,29.79,North,357,2.8,9.9,54,0.00,,CLR,0.00,VWS V14.01,2013-03-13 17:49:00,
2013-03-13 13:54:00,47.1,31.3,29.78,WSW,248,2.8,4.3,54,0.00,,CLR,0.00,VWS V14.01,2013-03-13 17:54:00,
2013-03-13 13:59:00,47.8,32.0,29.78,ESE,113,2.8,5.7,54,0.00,,CLR,0.00,VWS V14.01,2013-03-13 17:59:00,
2013-03-13 14:04:00,48.0,30.8,29.78,South,174,9.9,12.8,51,0.00,,CLR,0.00,VWS V14.01,2013-03-13 18:04:00,
2013-03-13 14:09:00,47.6,30.9,29.78,South,186,7.1,7.1,52,0.00,,CLR,0.00,VWS V14.01,2013-03-13 18:09:00,
2013-03-13 14:14:00,47.4,30.2,29.77,South,171,7.1,9.9,51,0.00,,CLR,0.00,VWS V14.01,2013-03-13 18:14:00,
2013-03-13 14:19:00,47.7,31.0,29.77,South,169,4.3,7.1,52,0.00,,CLR,0.00,VWS V14.01,2013-03-13 18:19:00,
2013-03-13 14:24:00,48.0,30.8,29.77,SW,216,7.1,11.4,51,0.00,,CLR,0.00,VWS V14.01,2013-03-13 18:24:00,
2013-03-13 14:29:00,48.6,31.3,29.77,NNE,20,1.4,4.3,51,0.00,,CLR,0.00,VWS V14.01,2013-03-13 18:29:00,
2013-03-13 14:34:00,49.0,30.7,29.77,SSW,212,4.3,4.3,49,0.00,,CLR,0.00,VWS V14.01,2013-03-13 18:34:00,
2013-03-13 14:39:00,49.0,30.2,29.77,SW,214,2.8,11.4,48,0.00,,CLR,0.00,VWS V14.01,2013-03-13 18:39:00,
2013-03-13 14:44:00,48.9,31.6,29.76,SSW,204,4.3,7.1,51,0.00,,CLR,0.00,VWS V14.01,2013-03-13 18:44:00,
2013-03-13 14:49:00,48.4,30.6,29.77,SW,222,0.0,5.7,50,0.00,,CLR,0.00,VWS V14.01,2013-03-13 18:49:00,
2013-03-13 14:54:00,48.5,30.2,29.77,SSW,198,1.4,8.5,49,0.00,,CLR,0.00,VWS V14.01,2013-03-13 18:54:00,
2013-03-13 14:59:00,48.2,30.5,29.76,SSE,168,0.0,4.3,50,0.00,,CLR,0.00,VWS V14.01,2013-03-13 18:59:00,
2013-03-13 15:04:00,47.2,29.0,29.76,SW,225,0.0,1.4,49,0.00,,CLR,0.00,VWS V14.01,2013-03-13 19:04:00,
2013-03-13 15:09:00,47.8,30.6,29.76,NNE,22,8.5,8.5,51,0.00,,CLR,0.00,VWS V14.01,2013-03-13 19:09:00,
2013-03-13 15:14:00,48.8,30.5,29.76,SE,126,5.7,5.7,49,0.00,,CLR,0.00,VWS V14.01,2013-03-13 19:14:00,
2013-03-13 15:19:00,49.2,30.9,29.75,West,260,2.8,11.4,49,0.00,,CLR,0.00,VWS V14.01,2013-03-13 19:19:00,
2013-03-13 15:24:00,49.1,29.8,29.76,SSE,149,1.4,2.8,47,0.00,,CLR,0.00,VWS V14.01,2013-03-13 19:24:00,
2013-03-13 15:29:00,49.0,30.7,29.76,SW,214,4.3,5.7,49,0.00,,CLR,0.00,VWS V14.01,2013-03-13 19:29:00,
2013-03-13 15:34:00,49.3,31.0,29.75,North,3,0.0,4.3,49,0.00,,CLR,0.00,VWS V14.01,2013-03-13 19:34:00,
2013-03-13 15:39:00,49.2,29.3,29.76,South,187,0.0,4.3,46,0.00,,CLR,0.00,VWS V14.01,2013-03-13 19:39:00,
2013-03-13 15:44:00,48.9,30.1,29.75,SSE,158,4.3,7.1,48,0.00,,CLR,0.00,VWS V14.01,2013-03-13 19:44:00,
2013-03-13 15:49:00,48.8,30.0,29.76,North,5,0.0,14.2,48,0.00,,CLR,0.00,VWS V14.01,2013-03-13 19:49:00,
2013-03-13 15:54:00,48.9,30.6,29.76,South,170,1.4,7.1,49,0.00,,CLR,0.00,VWS V14.01,2013-03-13 19:54:00,
2013-03-13 15:59:00,48.2,28.9,29.76,South,179,4.3,11.4,47,0.00,,CLR,0.00,VWS V14.01,2013-03-13 19:59:00,
2013-03-13 16:04:00,47.6,29.9,29.76,SE,129,0.0,9.9,50,0.00,,CLR,0.00,VWS V14.01,2013-03-13 20:04:00,
2013-03-13 16:09:00,47.3,29.1,29.76,NNE,27,5.7,9.9,49,0.00,,SCT050,0.00,VWS V14.01,2013-03-13 20:09:00,
2013-03-13 16:14:00,46.8,29.2,29.76,West,263,7.1,7.1,50,0.00,,SCT050,0.00,VWS V14.01,2013-03-13 20:14:00,
2013-03-13 16:18:00,46.9,29.2,29.76,SSW,204,0.0,7.1,50,0.00,,SCT050,0.00,VWS V14.01,2013-03-13 20:18:00,
2013-03-13 16:23:00,47.1,28.4,29.76,West,276,0.0,7.1,48,0.00,,SCT050,0.00,VWS V14.01,2013-03-13 20:23:00,
2013-03-13 16:28:00,47.7,29.0,29.76,NW,306,2.8,8.5,48,0.00,,SCT050,0.00,VWS V14.01,2013-03-13 20:28:00,
2013-03-13 16:33:00,48.2,29.5,29.76,WNW,293,9.9,11.4,48,0.00,,SCT050,0.00,VWS V14.01,2013-03-13 20:33:00,
2013-03-13 16:38:00,47.9,28.1,29.76,WNW,295,7.1,11.4,46,0.00,,SCT050,0.00,VWS V14.01,2013-03-13 20:38:00,
2013-03-13 16:43:00,47.3,27.6,29.76,SSW,212,8.5,8.5,46,0.00,,SCT050,0.00,VWS V14.01,2013-03-13 20:43:00,
2013-03-13 16:48:00,46.7,27.0,29.76,North,354,0.0,7.1,46,0.00,,SCT050,0.00,VWS V14.01,2013-03-13 20:48:00,
2013-03-13 16:53:00,46.3,26.7,29.77,NNW,333,4.3,9.9,46,0.00,,SCT050,0.00,VWS V14.01,2013-03-13 20:53:00,
2013-03-13 16:58:00,46.1,27.0,29.77,WSW,255,0.0,4.3,47,0.00,,SCT050,0.00,VWS V14.01,2013-03-13 20:58:00,
2013-03-13 17:03:00,46.4,28.3,29.77,North,2,1.4,1.4,49,0.00,,SCT050,0.00,VWS V14.01,2013-03-13 21:03:00,
2013-03-13 17:08:00,46.7,28.1,29.76,SSW,206,0.0,2.8,48,0.00,,OVC060,0.00,VWS V14.01,2013-03-13 21:08:00,
2013-03-13 17:13:00,46.8,27.6,29.76,NNE,13,0.0,4.3,47,0.00,,OVC060,0.00,VWS V14.01,2013-03-13 21:13:00,
2013-03-13 17:18:00,46.4,27.8,29.77,NW,325,0.0,17.0,48,0.00,,OVC060,0.00,VWS V14.01,2013-03-13 21:18:00,
2013-03-13 17:23:00,46.3,28.2,29.76,NW,315,1.4,5.7,49,0.00,,OVC060,0.00,VWS V14.01,2013-03-13 21:23:00,
2013-03-13 17:28:00,46.2,27.6,29.76,WNW,300,0.0,4.3,48,0.00,,OVC060,0.00,VWS V14.01,2013-03-13 21:28:00,
2013-03-13 17:33:00,46.0,27.9,29.76,NNW,337,0.0,11.4,49,0.00,,OVC060,0.00,VWS V14.01,2013-03-13 21:33:00,
2013-03-13 17:38:00,45.7,27.6,29.76,NNW,333,1.4,5.7,49,0.00,,OVC060,0.00,VWS V14.01,2013-03-13 21:38:00,
2013-03-13 17:43:00,45.6,28.0,29.76,NNW,338,7.1,11.4,50,0.00,,OVC060,0.00,VWS V14.01,2013-03-13 21:43:00,
2013-03-13 17:48:00,45.4,28.4,29.76,SSW,192,1.4,5.7,51,0.00,,OVC060,0.00,VWS V14.01,2013-03-13 21:48:00,
2013-03-13 17:53:00,45.3,27.3,29.76,West,262,0.0,1.4,49,0.00,,OVC060,0.00,VWS V14.01,2013-03-13 21:53:00,
2013-03-13 17:58:00,44.9,26.9,29.77,NNW,342,1.4,7.1,49,0.00,,OVC060,0.00,VWS V14.01,2013-03-13 21:58:00,
2013-03-13 18:03:00,44.6,26.1,29.77,North,358,0.0,2.8,48,0.00,,OVC060,0.00,VWS V14.01,2013-03-13 22:03:00,
2013-03-13 18:08:00,44.5,26.0,29.77,SW,216,0.0,2.8,48,0.00,,SCT080,0.00,VWS V14.01,2013-03-13 22:08:00,
2013-03-13 18:13:00,44.5,26.0,29.76,WNW,288,0.0,1.4,48,0.00,,SCT080,0.00,VWS V14.01,2013-03-13 22:13:00,
2013-03-13 18:18:00,44.2,25.8,29.77,NW,317,0.0,2.8,48,0.00,,SCT080,0.00,VWS V14.01,2013-03-13 22:18:00,
2013-03-13 18:23:00,44.1,26.2,29.77,WSW,250,0.0,0.0,49,0.00,,SCT080,0.00,VWS V14.01,2013-03-13 22:23:00,
2013-03-13 18:28:00,43.8,26.9,29.77,West,269,0.0,0.0,51,0.00,,SCT080,0.00,VWS V14.01,2013-03-13 22:28:00,
2013-03-13 18:33:00,43.6,27.1,29.77,NW,326,0.0,1.4,52,0.00,,SCT080,0.00,VWS V14.01,2013-03-13 22:33:00,
2013-03-13 18:38:00,43.5,27.5,29.78,NW,326,0.0,0.0,53,0.00,,SCT080,0.00,VWS V14.01,2013-03-13 22:38:00,
2013-03-13 18:43:00,43.2,27.2,29.78,NW,326,0.0,0.0,53,0.00,,SCT080,0.00,VWS V14.01,2013-03-13 22:43:00,
2013-03-13 18:48:00,43.2,27.2,29.78,NW,326,0.0,0.0,53,0.00,,SCT080,0.00,VWS V14.01,2013-03-13 22:48:00,
2013-03-13 18:53:00,43.2,27.7,29.78,NW,321,0.0,1.4,54,0.00,,SCT080,0.00,VWS V14.01,2013-03-13 22:53:00,
2013-03-13 18:58:00,43.1,27.1,29.78,NW,321,0.0,0.0,53,0.00,,SCT080,0.00,VWS V14.01,2013-03-13 22:58:00,
2013-03-13 19:03:00,43.1,27.6,29.79,NW,316,0.0,0.0,54,0.00,,SCT080,0.00,VWS V14.01,2013-03-13 23:03:00,
2013-03-13 19:08:00,42.9,27.9,29.79,NW,316,0.0,0.0,55,0.00,,BKN085,0.00,VWS V14.01,2013-03-13 23:08:00,
2013-03-13 19:13:00,42.6,28.0,29.79,NNW,327,0.0,0.0,56,0.00,,BKN085,0.00,VWS V14.01,2013-03-13 23:13:00,
2013-03-13 19:18:00,42.4,27.4,29.79,NW,317,0.0,1.4,55,0.00,,BKN085,0.00,VWS V14.01,2013-03-13 23:18:00,
2013-03-13 19:23:00,42.4,27.0,29.79,WNW,298,1.4,1.4,54,0.00,,BKN085,0.00,VWS V14.01,2013-03-13 23:23:00,
2013-03-13 19:28:00,42.2,26.8,29.79,NNW,330,0.0,1.4,54,0.00,,BKN085,0.00,VWS V14.01,2013-03-13 23:28:00,
2013-03-13 19:33:00,42.2,26.8,29.79,NNW,331,0.0,0.0,54,0.00,,BKN085,0.00,VWS V14.01,2013-03-13 23:33:00,
2013-03-13 19:38:00,42.1,26.2,29.79,West,280,0.0,0.0,53,0.00,,BKN085,0.00,VWS V14.01,2013-03-13 23:38:00,
2013-03-13 19:43:00,42.1,25.8,29.80,NNW,334,0.0,1.4,52,0.00,,BKN085,0.00,VWS V14.01,2013-03-13 23:43:00,
2013-03-13 19:48:00,41.9,25.6,29.80,NW,308,0.0,0.0,52,0.00,,BKN085,0.00,VWS V14.01,2013-03-13 23:48:00,
2013-03-13 19:53:00,41.6,25.3,29.80,WNW,291,0.0,2.8,52,0.00,,BKN085,0.00,VWS V14.01,2013-03-13 23:53:00,
2013-03-13 19:58:00,41.5,24.7,29.80,WNW,290,0.0,0.0,51,0.00,,BKN085,0.00,VWS V14.01,2013-03-13 23:58:00,
2013-03-13 20:04:00,41.4,25.1,29.80,WNW,290,0.0,0.0,52,0.00,,BKN085,0.00,VWS V14.01,2013-03-14 00:04:00,
2013-03-13 20:09:00,41.2,24.9,29.80,WNW,290,0.0,0.0,52,0.00,,SCT080,0.00,VWS V14.01,2013-03-14 00:09:00,
2013-03-13 20:14:00,40.9,24.6,29.80,WNW,288,0.0,0.0,52,0.00,,SCT080,0.00,VWS V14.01,2013-03-14 00:14:00,
2013-03-13 20:19:00,40.8,24.5,29.80,WNW,288,0.0,0.0,52,0.00,,SCT080,0.00,VWS V14.01,2013-03-14 00:19:00,
2013-03-13 20:24:00,40.5,24.3,29.80,WNW,287,0.0,0.0,52,0.00,,SCT080,0.00,VWS V14.01,2013-03-14 00:24:00,
2013-03-13 20:28:00,40.1,24.8,29.80,WNW,287,0.0,0.0,54,0.00,,SCT080,0.00,VWS V14.01,2013-03-14 00:28:00,
2013-03-13 20:34:00,39.7,25.3,29.80,WNW,284,0.0,0.0,56,0.00,,SCT080,0.00,VWS V14.01,2013-03-14 00:34:00,
2013-03-13 20:39:00,39.5,25.5,29.80,WNW,282,0.0,0.0,57,0.00,,SCT080,0.00,VWS V14.01,2013-03-14 00:39:00,
2013-03-13 20:44:00,39.4,25.0,29.80,WNW,282,0.0,0.0,56,0.00,,SCT080,0.00,VWS V14.01,2013-03-14 00:44:00,
2013-03-13 20:49:00,39.2,25.3,29.80,WNW,282,0.0,0.0,57,0.00,,SCT080,0.00,VWS V14.01,2013-03-14 00:49:00,
2013-03-13 20:54:00,39.1,25.2,29.81,West,281,0.0,0.0,57,0.00,,SCT080,0.00,VWS V14.01,2013-03-14 00:54:00,
2013-03-13 20:59:00,38.8,24.9,29.81,West,278,0.0,0.0,57,0.00,,SCT080,0.00,VWS V14.01,2013-03-14 00:59:00,
2013-03-13 21:04:00,38.8,24.9,29.81,West,276,0.0,0.0,57,0.00,,SCT080,0.00,VWS V14.01,2013-03-14 01:04:00,
2013-03-13 21:09:00,38.5,25.0,29.81,West,273,0.0,0.0,58,0.00,,CLR,0.00,VWS V14.01,2013-03-14 01:09:00,
2013-03-13 21:14:00,38.7,26.0,29.81,West,265,0.0,1.4,60,0.00,,CLR,0.00,VWS V14.01,2013-03-14 01:14:00,